sensor_id;sensor_type;location;lat;lon;timestamp;P1;durP1;ratioP1;P2;durP2;ratioP2
57593;SDS011;43423;46.510;6.686;2023-01-31T00:03:45;15.70;;;5.90;;
57593;SDS011;43423;46.510;6.686;2023-01-31T00:08:44;18.38;;;8.35;;
57593;SDS011;43423;46.510;6.686;2023-01-31T00:11:11;20.15;;;7.93;;
57593;SDS011;43423;46.510;6.686;2023-01-31T00:13:37;20.85;;;8.05;;
57593;SDS011;43423;46.510;6.686;2023-01-31T00:16:05;16.85;;;7.18;;
57593;SDS011;43423;46.510;6.686;2023-01-31T00:18:31;15.27;;;6.20;;
57593;SDS011;43423;46.510;6.686;2023-01-31T00:20:57;16.13;;;6.40;;
57593;SDS011;43423;46.510;6.686;2023-01-31T00:23:22;14.70;;;6.68;;
57593;SDS011;43423;46.510;6.686;2023-01-31T00:25:48;15.18;;;6.93;;
57593;SDS011;43423;46.510;6.686;2023-01-31T00:28:14;14.23;;;6.10;;
57593;SDS011;43423;46.510;6.686;2023-01-31T00:30:39;13.73;;;5.70;;
57593;SDS011;43423;46.510;6.686;2023-01-31T00:33:05;12.77;;;5.88;;
57593;SDS011;43423;46.510;6.686;2023-01-31T00:35:30;14.90;;;6.10;;
57593;SDS011;43423;46.510;6.686;2023-01-31T00:37:56;12.68;;;5.63;;
57593;SDS011;43423;46.510;6.686;2023-01-31T00:40:21;14.48;;;6.50;;
57593;SDS011;43423;46.510;6.686;2023-01-31T00:42:47;14.07;;;6.05;;
57593;SDS011;43423;46.510;6.686;2023-01-31T00:45:12;11.35;;;4.85;;
57593;SDS011;43423;46.510;6.686;2023-01-31T00:47:38;9.93;;;3.95;;
57593;SDS011;43423;46.510;6.686;2023-01-31T00:50:04;10.27;;;4.80;;
57593;SDS011;43423;46.510;6.686;2023-01-31T00:52:29;10.75;;;4.53;;
57593;SDS011;43423;46.510;6.686;2023-01-31T00:54:56;6.70;;;3.78;;
57593;SDS011;43423;46.510;6.686;2023-01-31T00:57:21;10.77;;;5.35;;
57593;SDS011;43423;46.510;6.686;2023-01-31T00:59:47;10.73;;;5.40;;
57593;SDS011;43423;46.510;6.686;2023-01-31T01:02:12;8.95;;;4.50;;
57593;SDS011;43423;46.510;6.686;2023-01-31T01:04:38;8.30;;;4.00;;
57593;SDS011;43423;46.510;6.686;2023-01-31T01:07:03;8.73;;;4.30;;
57593;SDS011;43423;46.510;6.686;2023-01-31T01:09:29;8.65;;;3.60;;
57593;SDS011;43423;46.510;6.686;2023-01-31T01:11:55;5.43;;;3.40;;
57593;SDS011;43423;46.510;6.686;2023-01-31T01:14:20;6.88;;;3.05;;
57593;SDS011;43423;46.510;6.686;2023-01-31T01:16:46;4.35;;;2.85;;
57593;SDS011;43423;46.510;6.686;2023-01-31T01:19:14;5.50;;;2.90;;
57593;SDS011;43423;46.510;6.686;2023-01-31T01:21:41;4.05;;;2.75;;
57593;SDS011;43423;46.510;6.686;2023-01-31T01:24:15;5.50;;;2.53;;
57593;SDS011;43423;46.510;6.686;2023-01-31T01:26:42;3.25;;;2.00;;
57593;SDS011;43423;46.510;6.686;2023-01-31T01:29:10;4.95;;;2.50;;
57593;SDS011;43423;46.510;6.686;2023-01-31T01:31:36;3.28;;;1.95;;
57593;SDS011;43423;46.510;6.686;2023-01-31T01:34:13;2.95;;;1.83;;
57593;SDS011;43423;46.510;6.686;2023-01-31T01:36:39;4.32;;;2.17;;
57593;SDS011;43423;46.510;6.686;2023-01-31T01:39:06;3.17;;;1.90;;
57593;SDS011;43423;46.510;6.686;2023-01-31T01:41:33;4.07;;;2.10;;
57593;SDS011;43423;46.510;6.686;2023-01-31T01:44:00;4.38;;;2.03;;
57593;SDS011;43423;46.510;6.686;2023-01-31T01:46:28;3.85;;;1.90;;
57593;SDS011;43423;46.510;6.686;2023-01-31T01:49:00;3.53;;;2.17;;
57593;SDS011;43423;46.510;6.686;2023-01-31T01:51:30;2.90;;;1.70;;
57593;SDS011;43423;46.510;6.686;2023-01-31T01:53:59;3.85;;;2.00;;
57593;SDS011;43423;46.510;6.686;2023-01-31T01:56:35;4.78;;;2.40;;
57593;SDS011;43423;46.510;6.686;2023-01-31T01:59:05;4.05;;;2.55;;
57593;SDS011;43423;46.510;6.686;2023-01-31T02:01:36;5.13;;;2.70;;
57593;SDS011;43423;46.510;6.686;2023-01-31T02:04:04;6.28;;;2.95;;
57593;SDS011;43423;46.510;6.686;2023-01-31T02:06:34;4.18;;;2.33;;
57593;SDS011;43423;46.510;6.686;2023-01-31T02:08:59;5.88;;;2.42;;
57593;SDS011;43423;46.510;6.686;2023-01-31T02:11:26;3.95;;;2.42;;
57593;SDS011;43423;46.510;6.686;2023-01-31T02:13:58;4.93;;;2.38;;
57593;SDS011;43423;46.510;6.686;2023-01-31T02:16:26;5.47;;;2.65;;
57593;SDS011;43423;46.510;6.686;2023-01-31T02:18:52;5.53;;;2.58;;
57593;SDS011;43423;46.510;6.686;2023-01-31T02:32:47;6.90;;;2.72;;
57593;SDS011;43423;46.510;6.686;2023-01-31T02:35:33;5.90;;;2.88;;
57593;SDS011;43423;46.510;6.686;2023-01-31T02:50:16;8.85;;;2.63;;
57593;SDS011;43423;46.510;6.686;2023-01-31T02:53:04;5.97;;;2.67;;
57593;SDS011;43423;46.510;6.686;2023-01-31T02:58:35;4.57;;;2.40;;
57593;SDS011;43423;46.510;6.686;2023-01-31T03:01:03;3.33;;;1.98;;
57593;SDS011;43423;46.510;6.686;2023-01-31T03:03:34;4.72;;;2.40;;
57593;SDS011;43423;46.510;6.686;2023-01-31T03:09:00;4.03;;;2.30;;
57593;SDS011;43423;46.510;6.686;2023-01-31T03:11:43;5.25;;;2.30;;
57593;SDS011;43423;46.510;6.686;2023-01-31T03:14:23;6.43;;;2.05;;
57593;SDS011;43423;46.510;6.686;2023-01-31T03:23:13;6.53;;;3.03;;
57593;SDS011;43423;46.510;6.686;2023-01-31T03:25:43;2.95;;;2.10;;
57593;SDS011;43423;46.510;6.686;2023-01-31T03:28:12;4.70;;;2.13;;
57593;SDS011;43423;46.510;6.686;2023-01-31T03:33:34;4.60;;;2.85;;
57593;SDS011;43423;46.510;6.686;2023-01-31T03:36:16;5.47;;;2.65;;
57593;SDS011;43423;46.510;6.686;2023-01-31T03:38:55;5.97;;;2.50;;
57593;SDS011;43423;46.510;6.686;2023-01-31T03:47:02;2.30;;;1.80;;
57593;SDS011;43423;46.510;6.686;2023-01-31T03:49:33;6.68;;;2.33;;
57593;SDS011;43423;46.510;6.686;2023-01-31T03:52:03;5.97;;;2.72;;
57593;SDS011;43423;46.510;6.686;2023-01-31T03:54:33;7.80;;;2.95;;
57593;SDS011;43423;46.510;6.686;2023-01-31T03:57:05;4.53;;;2.42;;
57593;SDS011;43423;46.510;6.686;2023-01-31T03:59:42;7.55;;;2.80;;
57593;SDS011;43423;46.510;6.686;2023-01-31T04:02:11;6.28;;;3.08;;
57593;SDS011;43423;46.510;6.686;2023-01-31T04:04:42;6.15;;;3.20;;
57593;SDS011;43423;46.510;6.686;2023-01-31T04:07:13;6.30;;;3.38;;
57593;SDS011;43423;46.510;6.686;2023-01-31T04:09:38;6.38;;;3.78;;
57593;SDS011;43423;46.510;6.686;2023-01-31T04:12:04;7.10;;;3.50;;
57593;SDS011;43423;46.510;6.686;2023-01-31T04:14:30;7.50;;;3.92;;
57593;SDS011;43423;46.510;6.686;2023-01-31T04:16:55;6.82;;;3.33;;
57593;SDS011;43423;46.510;6.686;2023-01-31T04:19:21;8.30;;;3.85;;
57593;SDS011;43423;46.510;6.686;2023-01-31T04:21:46;8.55;;;3.83;;
57593;SDS011;43423;46.510;6.686;2023-01-31T04:24:12;11.68;;;4.28;;
57593;SDS011;43423;46.510;6.686;2023-01-31T04:26:38;9.05;;;4.05;;
57593;SDS011;43423;46.510;6.686;2023-01-31T04:29:03;8.32;;;4.22;;
57593;SDS011;43423;46.510;6.686;2023-01-31T04:31:29;8.77;;;4.50;;
57593;SDS011;43423;46.510;6.686;2023-01-31T04:33:55;8.85;;;3.97;;
57593;SDS011;43423;46.510;6.686;2023-01-31T04:36:25;8.90;;;4.82;;
57593;SDS011;43423;46.510;6.686;2023-01-31T04:38:51;8.48;;;4.20;;
57593;SDS011;43423;46.510;6.686;2023-01-31T04:41:17;9.93;;;4.72;;
57593;SDS011;43423;46.510;6.686;2023-01-31T04:43:42;7.22;;;3.95;;
57593;SDS011;43423;46.510;6.686;2023-01-31T04:46:08;7.55;;;4.20;;
57593;SDS011;43423;46.510;6.686;2023-01-31T04:48:33;9.27;;;4.32;;
57593;SDS011;43423;46.510;6.686;2023-01-31T04:50:59;8.93;;;3.90;;
57593;SDS011;43423;46.510;6.686;2023-01-31T04:53:24;9.00;;;4.30;;
57593;SDS011;43423;46.510;6.686;2023-01-31T04:55:53;8.50;;;4.30;;
57593;SDS011;43423;46.510;6.686;2023-01-31T04:58:19;9.68;;;4.50;;
57593;SDS011;43423;46.510;6.686;2023-01-31T05:00:45;7.57;;;3.50;;
57593;SDS011;43423;46.510;6.686;2023-01-31T05:03:10;7.88;;;3.75;;
57593;SDS011;43423;46.510;6.686;2023-01-31T05:05:37;6.88;;;3.90;;
57593;SDS011;43423;46.510;6.686;2023-01-31T05:08:02;6.70;;;3.90;;
57593;SDS011;43423;46.510;6.686;2023-01-31T05:10:28;7.40;;;3.80;;
57593;SDS011;43423;46.510;6.686;2023-01-31T05:12:53;7.65;;;3.90;;
57593;SDS011;43423;46.510;6.686;2023-01-31T05:15:19;8.32;;;4.03;;
57593;SDS011;43423;46.510;6.686;2023-01-31T05:17:50;8.73;;;4.88;;
57593;SDS011;43423;46.510;6.686;2023-01-31T05:20:34;7.75;;;3.78;;
57593;SDS011;43423;46.510;6.686;2023-01-31T05:23:04;8.25;;;4.45;;
57593;SDS011;43423;46.510;6.686;2023-01-31T05:25:30;10.48;;;4.85;;
57593;SDS011;43423;46.510;6.686;2023-01-31T05:27:55;10.18;;;4.72;;
57593;SDS011;43423;46.510;6.686;2023-01-31T05:30:21;9.45;;;4.95;;
57593;SDS011;43423;46.510;6.686;2023-01-31T05:32:48;8.82;;;4.35;;
57593;SDS011;43423;46.510;6.686;2023-01-31T05:35:15;9.27;;;4.10;;
57593;SDS011;43423;46.510;6.686;2023-01-31T05:37:41;9.57;;;4.60;;
57593;SDS011;43423;46.510;6.686;2023-01-31T05:40:08;8.15;;;3.97;;
57593;SDS011;43423;46.510;6.686;2023-01-31T05:42:35;10.13;;;4.25;;
57593;SDS011;43423;46.510;6.686;2023-01-31T05:45:00;6.90;;;4.45;;
57593;SDS011;43423;46.510;6.686;2023-01-31T05:47:26;9.60;;;4.90;;
57593;SDS011;43423;46.510;6.686;2023-01-31T05:49:51;9.35;;;4.47;;
57593;SDS011;43423;46.510;6.686;2023-01-31T05:52:17;10.85;;;4.72;;
57593;SDS011;43423;46.510;6.686;2023-01-31T05:54:42;8.55;;;4.63;;
57593;SDS011;43423;46.510;6.686;2023-01-31T05:57:08;9.38;;;4.40;;
57593;SDS011;43423;46.510;6.686;2023-01-31T05:59:33;10.48;;;4.75;;
57593;SDS011;43423;46.510;6.686;2023-01-31T06:01:59;10.88;;;5.00;;
57593;SDS011;43423;46.510;6.686;2023-01-31T06:04:24;8.80;;;4.43;;
57593;SDS011;43423;46.510;6.686;2023-01-31T06:06:50;12.52;;;5.20;;
57593;SDS011;43423;46.510;6.686;2023-01-31T06:09:15;10.85;;;5.38;;
57593;SDS011;43423;46.510;6.686;2023-01-31T06:11:41;9.73;;;4.72;;
57593;SDS011;43423;46.510;6.686;2023-01-31T06:14:07;11.70;;;5.68;;
57593;SDS011;43423;46.510;6.686;2023-01-31T06:16:33;10.82;;;4.78;;
57593;SDS011;43423;46.510;6.686;2023-01-31T06:18:59;11.98;;;5.70;;
57593;SDS011;43423;46.510;6.686;2023-01-31T06:21:24;11.18;;;5.63;;
57593;SDS011;43423;46.510;6.686;2023-01-31T06:23:50;13.98;;;6.03;;
57593;SDS011;43423;46.510;6.686;2023-01-31T06:26:15;9.60;;;5.45;;
57593;SDS011;43423;46.510;6.686;2023-01-31T06:28:41;8.80;;;5.00;;
57593;SDS011;43423;46.510;6.686;2023-01-31T06:31:10;13.13;;;5.53;;
57593;SDS011;43423;46.510;6.686;2023-01-31T06:33:36;10.43;;;5.82;;
57593;SDS011;43423;46.510;6.686;2023-01-31T06:36:02;11.02;;;5.13;;
57593;SDS011;43423;46.510;6.686;2023-01-31T06:38:28;10.50;;;4.88;;
57593;SDS011;43423;46.510;6.686;2023-01-31T06:40:55;9.85;;;4.75;;
57593;SDS011;43423;46.510;6.686;2023-01-31T06:43:21;8.05;;;4.13;;
57593;SDS011;43423;46.510;6.686;2023-01-31T06:45:46;14.13;;;4.85;;
57593;SDS011;43423;46.510;6.686;2023-01-31T06:48:14;10.55;;;5.13;;
57593;SDS011;43423;46.510;6.686;2023-01-31T06:50:40;7.55;;;4.32;;
57593;SDS011;43423;46.510;6.686;2023-01-31T06:53:06;8.80;;;4.65;;
57593;SDS011;43423;46.510;6.686;2023-01-31T06:55:32;9.52;;;4.38;;
57593;SDS011;43423;46.510;6.686;2023-01-31T06:57:58;6.85;;;4.10;;
57593;SDS011;43423;46.510;6.686;2023-01-31T07:00:23;11.75;;;4.78;;
57593;SDS011;43423;46.510;6.686;2023-01-31T07:02:50;9.13;;;3.85;;
57593;SDS011;43423;46.510;6.686;2023-01-31T07:05:17;10.10;;;3.67;;
57593;SDS011;43423;46.510;6.686;2023-01-31T07:07:43;8.65;;;3.70;;
57593;SDS011;43423;46.510;6.686;2023-01-31T07:10:09;7.05;;;3.97;;
57593;SDS011;43423;46.510;6.686;2023-01-31T07:12:35;7.95;;;3.90;;
57593;SDS011;43423;46.510;6.686;2023-01-31T07:15:01;7.68;;;4.40;;
57593;SDS011;43423;46.510;6.686;2023-01-31T07:17:27;10.20;;;4.78;;
57593;SDS011;43423;46.510;6.686;2023-01-31T07:19:52;13.80;;;5.55;;
57593;SDS011;43423;46.510;6.686;2023-01-31T07:22:18;11.93;;;5.55;;
57593;SDS011;43423;46.510;6.686;2023-01-31T07:24:44;10.43;;;5.93;;
57593;SDS011;43423;46.510;6.686;2023-01-31T07:27:12;9.35;;;4.47;;
57593;SDS011;43423;46.510;6.686;2023-01-31T07:29:38;14.93;;;7.22;;
57593;SDS011;43423;46.510;6.686;2023-01-31T07:32:04;12.43;;;5.63;;
57593;SDS011;43423;46.510;6.686;2023-01-31T07:34:30;12.43;;;6.10;;
57593;SDS011;43423;46.510;6.686;2023-01-31T07:36:56;11.23;;;5.07;;
57593;SDS011;43423;46.510;6.686;2023-01-31T07:39:21;11.75;;;6.15;;
57593;SDS011;43423;46.510;6.686;2023-01-31T07:41:48;10.25;;;5.93;;
57593;SDS011;43423;46.510;6.686;2023-01-31T07:44:14;10.32;;;5.78;;
57593;SDS011;43423;46.510;6.686;2023-01-31T07:46:40;12.77;;;6.57;;
57593;SDS011;43423;46.510;6.686;2023-01-31T07:49:05;12.90;;;5.88;;
57593;SDS011;43423;46.510;6.686;2023-01-31T07:51:33;13.35;;;6.20;;
57593;SDS011;43423;46.510;6.686;2023-01-31T07:54:00;12.07;;;5.97;;
57593;SDS011;43423;46.510;6.686;2023-01-31T07:56:26;10.15;;;5.90;;
57593;SDS011;43423;46.510;6.686;2023-01-31T07:58:52;13.23;;;6.32;;
57593;SDS011;43423;46.510;6.686;2023-01-31T08:01:18;11.52;;;5.88;;
57593;SDS011;43423;46.510;6.686;2023-01-31T08:04:05;11.48;;;6.28;;
57593;SDS011;43423;46.510;6.686;2023-01-31T08:06:31;14.80;;;5.65;;
57593;SDS011;43423;46.510;6.686;2023-01-31T08:08:57;11.38;;;5.40;;
57593;SDS011;43423;46.510;6.686;2023-01-31T08:11:23;9.98;;;5.80;;
57593;SDS011;43423;46.510;6.686;2023-01-31T08:13:49;11.93;;;6.18;;
57593;SDS011;43423;46.510;6.686;2023-01-31T08:16:15;11.15;;;5.60;;
57593;SDS011;43423;46.510;6.686;2023-01-31T08:18:40;10.50;;;5.88;;
57593;SDS011;43423;46.510;6.686;2023-01-31T08:21:06;10.88;;;5.57;;
57593;SDS011;43423;46.510;6.686;2023-01-31T08:23:35;11.32;;;5.97;;
57593;SDS011;43423;46.510;6.686;2023-01-31T08:26:03;11.93;;;5.80;;
57593;SDS011;43423;46.510;6.686;2023-01-31T08:28:31;11.73;;;5.72;;
57593;SDS011;43423;46.510;6.686;2023-01-31T08:30:57;11.18;;;5.38;;
57593;SDS011;43423;46.510;6.686;2023-01-31T08:33:23;9.05;;;5.30;;
57593;SDS011;43423;46.510;6.686;2023-01-31T08:35:49;12.57;;;5.80;;
57593;SDS011;43423;46.510;6.686;2023-01-31T08:38:15;14.60;;;6.60;;
57593;SDS011;43423;46.510;6.686;2023-01-31T08:40:40;12.50;;;5.85;;
57593;SDS011;43423;46.510;6.686;2023-01-31T08:43:07;9.98;;;4.30;;
57593;SDS011;43423;46.510;6.686;2023-01-31T08:45:32;6.85;;;3.92;;
57593;SDS011;43423;46.510;6.686;2023-01-31T08:47:58;7.35;;;4.00;;
57593;SDS011;43423;46.510;6.686;2023-01-31T08:50:26;7.03;;;4.10;;
57593;SDS011;43423;46.510;6.686;2023-01-31T08:52:53;10.85;;;5.32;;
57593;SDS011;43423;46.510;6.686;2023-01-31T08:55:28;10.00;;;3.83;;
57593;SDS011;43423;46.510;6.686;2023-01-31T08:57:54;7.15;;;3.40;;
57593;SDS011;43423;46.510;6.686;2023-01-31T09:00:20;8.35;;;4.00;;
57593;SDS011;43423;46.510;6.686;2023-01-31T09:02:56;7.43;;;3.92;;
57593;SDS011;43423;46.510;6.686;2023-01-31T09:05:24;8.68;;;4.28;;
57593;SDS011;43423;46.510;6.686;2023-01-31T09:07:51;8.85;;;4.60;;
57593;SDS011;43423;46.510;6.686;2023-01-31T09:10:17;8.43;;;4.57;;
57593;SDS011;43423;46.510;6.686;2023-01-31T09:12:43;9.45;;;5.00;;
57593;SDS011;43423;46.510;6.686;2023-01-31T09:15:09;8.52;;;4.78;;
57593;SDS011;43423;46.510;6.686;2023-01-31T09:17:35;10.43;;;5.38;;
57593;SDS011;43423;46.510;6.686;2023-01-31T09:20:01;12.90;;;5.88;;
57593;SDS011;43423;46.510;6.686;2023-01-31T09:22:31;13.73;;;6.80;;
57593;SDS011;43423;46.510;6.686;2023-01-31T09:24:58;12.30;;;6.20;;
57593;SDS011;43423;46.510;6.686;2023-01-31T09:27:24;16.35;;;6.22;;
57593;SDS011;43423;46.510;6.686;2023-01-31T09:29:50;12.15;;;6.07;;
57593;SDS011;43423;46.510;6.686;2023-01-31T09:32:15;11.27;;;5.32;;
57593;SDS011;43423;46.510;6.686;2023-01-31T09:34:41;10.45;;;5.63;;
57593;SDS011;43423;46.510;6.686;2023-01-31T09:37:06;12.07;;;5.93;;
57593;SDS011;43423;46.510;6.686;2023-01-31T09:39:32;12.77;;;5.25;;
57593;SDS011;43423;46.510;6.686;2023-01-31T09:42:00;10.95;;;5.43;;
57593;SDS011;43423;46.510;6.686;2023-01-31T09:44:44;11.70;;;5.50;;
57593;SDS011;43423;46.510;6.686;2023-01-31T09:47:32;12.18;;;5.45;;
57593;SDS011;43423;46.510;6.686;2023-01-31T09:50:06;12.48;;;5.40;;
57593;SDS011;43423;46.510;6.686;2023-01-31T09:52:45;12.23;;;6.32;;
57593;SDS011;43423;46.510;6.686;2023-01-31T09:55:32;16.23;;;6.00;;
57593;SDS011;43423;46.510;6.686;2023-01-31T09:58:12;12.07;;;6.00;;
57593;SDS011;43423;46.510;6.686;2023-01-31T10:01:01;14.10;;;6.00;;
57593;SDS011;43423;46.510;6.686;2023-01-31T10:06:44;11.63;;;6.07;;
57593;SDS011;43423;46.510;6.686;2023-01-31T10:09:35;12.57;;;6.25;;
57593;SDS011;43423;46.510;6.686;2023-01-31T10:12:11;13.55;;;6.30;;
57593;SDS011;43423;46.510;6.686;2023-01-31T10:14:44;11.30;;;5.88;;
57593;SDS011;43423;46.510;6.686;2023-01-31T10:22:44;10.65;;;6.05;;
57593;SDS011;43423;46.510;6.686;2023-01-31T10:27:55;11.45;;;5.68;;
57593;SDS011;43423;46.510;6.686;2023-01-31T10:30:30;11.40;;;5.68;;
57593;SDS011;43423;46.510;6.686;2023-01-31T10:36:10;12.07;;;5.40;;
57593;SDS011;43423;46.510;6.686;2023-01-31T10:38:52;10.30;;;5.55;;
57593;SDS011;43423;46.510;6.686;2023-01-31T10:41:57;11.10;;;5.57;;
57593;SDS011;43423;46.510;6.686;2023-01-31T10:44:29;11.55;;;5.30;;
57593;SDS011;43423;46.510;6.686;2023-01-31T10:47:06;11.57;;;6.03;;
57593;SDS011;43423;46.510;6.686;2023-01-31T10:49:37;13.00;;;5.60;;
57593;SDS011;43423;46.510;6.686;2023-01-31T10:57:18;11.73;;;6.43;;
57593;SDS011;43423;46.510;6.686;2023-01-31T10:59:44;12.70;;;6.03;;
57593;SDS011;43423;46.510;6.686;2023-01-31T11:02:19;13.13;;;6.07;;
57593;SDS011;43423;46.510;6.686;2023-01-31T11:04:47;12.43;;;6.80;;
57593;SDS011;43423;46.510;6.686;2023-01-31T11:07:15;10.15;;;5.47;;
57593;SDS011;43423;46.510;6.686;2023-01-31T11:09:42;10.30;;;5.85;;
57593;SDS011;43423;46.510;6.686;2023-01-31T11:12:12;10.50;;;5.90;;
57593;SDS011;43423;46.510;6.686;2023-01-31T11:14:38;11.60;;;6.07;;
57593;SDS011;43423;46.510;6.686;2023-01-31T11:17:05;10.02;;;5.72;;
57593;SDS011;43423;46.510;6.686;2023-01-31T11:19:50;11.40;;;6.47;;
57593;SDS011;43423;46.510;6.686;2023-01-31T11:22:20;11.15;;;6.15;;
57593;SDS011;43423;46.510;6.686;2023-01-31T11:24:50;12.98;;;6.68;;
57593;SDS011;43423;46.510;6.686;2023-01-31T11:27:26;11.98;;;6.28;;
57593;SDS011;43423;46.510;6.686;2023-01-31T11:29:57;13.52;;;7.00;;
57593;SDS011;43423;46.510;6.686;2023-01-31T11:32:25;12.15;;;6.43;;
57593;SDS011;43423;46.510;6.686;2023-01-31T11:35:35;12.57;;;7.05;;
57593;SDS011;43423;46.510;6.686;2023-01-31T11:37:49;14.43;;;6.90;;
57593;SDS011;43423;46.510;6.686;2023-01-31T11:40:19;13.93;;;7.00;;
57593;SDS011;43423;46.510;6.686;2023-01-31T11:42:51;12.27;;;7.40;;
57593;SDS011;43423;46.510;6.686;2023-01-31T11:45:22;12.25;;;6.43;;
57593;SDS011;43423;46.510;6.686;2023-01-31T11:47:52;12.63;;;6.72;;
57593;SDS011;43423;46.510;6.686;2023-01-31T11:52:54;10.73;;;5.78;;
57593;SDS011;43423;46.510;6.686;2023-01-31T11:55:21;13.90;;;7.18;;
57593;SDS011;43423;46.510;6.686;2023-01-31T11:57:49;13.13;;;6.68;;
57593;SDS011;43423;46.510;6.686;2023-01-31T12:00:21;11.75;;;6.60;;
57593;SDS011;43423;46.510;6.686;2023-01-31T12:02:52;12.73;;;6.10;;
57593;SDS011;43423;46.510;6.686;2023-01-31T12:05:32;13.98;;;6.95;;
57593;SDS011;43423;46.510;6.686;2023-01-31T12:08:01;11.65;;;6.40;;
57593;SDS011;43423;46.510;6.686;2023-01-31T12:12:57;12.73;;;7.53;;
57593;SDS011;43423;46.510;6.686;2023-01-31T12:15:24;17.42;;;7.95;;
57593;SDS011;43423;46.510;6.686;2023-01-31T12:17:52;12.73;;;6.90;;
57593;SDS011;43423;46.510;6.686;2023-01-31T12:26:13;16.35;;;8.93;;
57593;SDS011;43423;46.510;6.686;2023-01-31T12:42:25;12.95;;;7.53;;
57593;SDS011;43423;46.510;6.686;2023-01-31T12:45:08;17.02;;;7.30;;
57593;SDS011;43423;46.510;6.686;2023-01-31T12:50:42;14.75;;;7.80;;
57593;SDS011;43423;46.510;6.686;2023-01-31T12:53:40;13.70;;;7.20;;
57593;SDS011;43423;46.510;6.686;2023-01-31T12:56:18;15.93;;;7.80;;
57593;SDS011;43423;46.510;6.686;2023-01-31T12:59:00;15.85;;;8.32;;
57593;SDS011;43423;46.510;6.686;2023-01-31T13:01:51;15.38;;;7.18;;
57593;SDS011;43423;46.510;6.686;2023-01-31T13:07:08;14.10;;;7.97;;
57593;SDS011;43423;46.510;6.686;2023-01-31T13:09:41;15.90;;;8.25;;
57593;SDS011;43423;46.510;6.686;2023-01-31T13:12:13;19.20;;;9.65;;
57593;SDS011;43423;46.510;6.686;2023-01-31T13:14:46;17.50;;;9.25;;
57593;SDS011;43423;46.510;6.686;2023-01-31T13:17:22;14.52;;;7.65;;
57593;SDS011;43423;46.510;6.686;2023-01-31T13:19:55;16.20;;;8.73;;
57593;SDS011;43423;46.510;6.686;2023-01-31T13:22:27;17.38;;;9.00;;
57593;SDS011;43423;46.510;6.686;2023-01-31T13:25:14;17.92;;;7.97;;
57593;SDS011;43423;46.510;6.686;2023-01-31T13:27:54;17.05;;;8.30;;
57593;SDS011;43423;46.510;6.686;2023-01-31T13:33:07;14.77;;;7.88;;
57593;SDS011;43423;46.510;6.686;2023-01-31T13:35:42;12.23;;;6.77;;
57593;SDS011;43423;46.510;6.686;2023-01-31T13:38:12;13.32;;;6.35;;
57593;SDS011;43423;46.510;6.686;2023-01-31T13:40:49;11.32;;;6.55;;
57593;SDS011;43423;46.510;6.686;2023-01-31T13:43:17;11.68;;;6.30;;
57593;SDS011;43423;46.510;6.686;2023-01-31T13:45:45;10.63;;;5.95;;
57593;SDS011;43423;46.510;6.686;2023-01-31T13:51:16;13.60;;;5.97;;
57593;SDS011;43423;46.510;6.686;2023-01-31T13:53:52;12.18;;;5.97;;
57593;SDS011;43423;46.510;6.686;2023-01-31T13:56:24;11.43;;;5.75;;
57593;SDS011;43423;46.510;6.686;2023-01-31T13:58:53;11.05;;;5.72;;
57593;SDS011;43423;46.510;6.686;2023-01-31T14:01:21;13.23;;;5.68;;
57593;SDS011;43423;46.510;6.686;2023-01-31T14:09:29;12.18;;;6.13;;
57593;SDS011;43423;46.510;6.686;2023-01-31T14:11:57;10.70;;;6.63;;
57593;SDS011;43423;46.510;6.686;2023-01-31T14:17:03;10.20;;;6.30;;
57593;SDS011;43423;46.510;6.686;2023-01-31T14:27:22;11.38;;;6.00;;
57593;SDS011;43423;46.510;6.686;2023-01-31T14:29:56;13.30;;;5.90;;
57593;SDS011;43423;46.510;6.686;2023-01-31T14:37:41;11.35;;;6.57;;
57593;SDS011;43423;46.510;6.686;2023-01-31T14:40:33;11.25;;;6.70;;
57593;SDS011;43423;46.510;6.686;2023-01-31T14:43:28;17.42;;;8.38;;
57593;SDS011;43423;46.510;6.686;2023-01-31T14:46:26;16.42;;;7.50;;
57593;SDS011;43423;46.510;6.686;2023-01-31T14:49:26;15.88;;;7.80;;
57593;SDS011;43423;46.510;6.686;2023-01-31T14:55:10;14.43;;;7.55;;
57593;SDS011;43423;46.510;6.686;2023-01-31T14:57:52;15.73;;;8.30;;
57593;SDS011;43423;46.510;6.686;2023-01-31T15:00:23;18.20;;;8.50;;
57593;SDS011;43423;46.510;6.686;2023-01-31T15:02:54;16.35;;;8.55;;
57593;SDS011;43423;46.510;6.686;2023-01-31T15:07:56;14.23;;;8.50;;
57593;SDS011;43423;46.510;6.686;2023-01-31T15:19:11;18.25;;;9.90;;
57593;SDS011;43423;46.510;6.686;2023-01-31T15:21:44;16.05;;;8.23;;
57593;SDS011;43423;46.510;6.686;2023-01-31T15:24:16;16.10;;;9.13;;
57593;SDS011;43423;46.510;6.686;2023-01-31T15:26:44;18.90;;;8.85;;
57593;SDS011;43423;46.510;6.686;2023-01-31T15:29:17;16.85;;;8.68;;
57593;SDS011;43423;46.510;6.686;2023-01-31T15:31:46;16.02;;;8.65;;
57593;SDS011;43423;46.510;6.686;2023-01-31T15:34:22;18.02;;;8.98;;
57593;SDS011;43423;46.510;6.686;2023-01-31T15:37:01;18.52;;;9.05;;
57593;SDS011;43423;46.510;6.686;2023-01-31T15:39:39;23.48;;;10.10;;
57593;SDS011;43423;46.510;6.686;2023-01-31T15:44:48;17.08;;;8.98;;
57593;SDS011;43423;46.510;6.686;2023-01-31T15:47:20;17.08;;;9.30;;
57593;SDS011;43423;46.510;6.686;2023-01-31T15:49:47;20.67;;;8.90;;
57593;SDS011;43423;46.510;6.686;2023-01-31T15:52:18;18.80;;;9.55;;
57593;SDS011;43423;46.510;6.686;2023-01-31T15:54:53;18.95;;;9.68;;
57593;SDS011;43423;46.510;6.686;2023-01-31T15:57:21;19.10;;;9.73;;
57593;SDS011;43423;46.510;6.686;2023-01-31T15:59:48;17.02;;;8.98;;
57593;SDS011;43423;46.510;6.686;2023-01-31T16:02:24;15.85;;;8.98;;
57593;SDS011;43423;46.510;6.686;2023-01-31T16:04:53;19.55;;;9.35;;
57593;SDS011;43423;46.510;6.686;2023-01-31T16:07:19;18.20;;;9.32;;
57593;SDS011;43423;46.510;6.686;2023-01-31T16:09:47;23.67;;;10.45;;
57593;SDS011;43423;46.510;6.686;2023-01-31T16:12:13;19.45;;;9.48;;
57593;SDS011;43423;46.510;6.686;2023-01-31T16:14:44;22.88;;;11.18;;
57593;SDS011;43423;46.510;6.686;2023-01-31T16:17:11;18.50;;;10.27;;
57593;SDS011;43423;46.510;6.686;2023-01-31T16:19:37;17.67;;;9.25;;
57593;SDS011;43423;46.510;6.686;2023-01-31T16:22:16;19.98;;;9.77;;
57593;SDS011;43423;46.510;6.686;2023-01-31T16:24:58;18.73;;;9.98;;
57593;SDS011;43423;46.510;6.686;2023-01-31T16:27:26;18.60;;;8.35;;
57593;SDS011;43423;46.510;6.686;2023-01-31T16:29:55;17.88;;;9.57;;
57593;SDS011;43423;46.510;6.686;2023-01-31T16:32:23;21.88;;;9.45;;
57593;SDS011;43423;46.510;6.686;2023-01-31T16:34:55;17.80;;;10.38;;
57593;SDS011;43423;46.510;6.686;2023-01-31T16:37:28;18.17;;;10.20;;
57593;SDS011;43423;46.510;6.686;2023-01-31T16:40:00;19.35;;;10.27;;
57593;SDS011;43423;46.510;6.686;2023-01-31T16:42:29;19.95;;;10.63;;
57593;SDS011;43423;46.510;6.686;2023-01-31T16:44:56;20.02;;;9.45;;
57593;SDS011;43423;46.510;6.686;2023-01-31T16:52:45;14.93;;;8.10;;
57593;SDS011;43423;46.510;6.686;2023-01-31T16:55:13;17.50;;;9.57;;
57593;SDS011;43423;46.510;6.686;2023-01-31T16:57:43;16.90;;;8.77;;
57593;SDS011;43423;46.510;6.686;2023-01-31T17:02:53;19.65;;;8.30;;
57593;SDS011;43423;46.510;6.686;2023-01-31T17:05:21;21.63;;;9.15;;
57593;SDS011;43423;46.510;6.686;2023-01-31T17:12:56;34.13;;;14.13;;
57593;SDS011;43423;46.510;6.686;2023-01-31T17:15:33;25.63;;;10.85;;
57593;SDS011;43423;46.510;6.686;2023-01-31T17:17:59;20.15;;;9.40;;
57593;SDS011;43423;46.510;6.686;2023-01-31T17:20:24;20.60;;;9.23;;
57593;SDS011;43423;46.510;6.686;2023-01-31T17:22:50;19.10;;;9.70;;
57593;SDS011;43423;46.510;6.686;2023-01-31T17:25:22;17.23;;;9.48;;
57593;SDS011;43423;46.510;6.686;2023-01-31T17:27:51;21.20;;;9.98;;
57593;SDS011;43423;46.510;6.686;2023-01-31T17:30:18;22.55;;;10.45;;